sensor_id;sensor_type;location;lat;lon;timestamp;P1;durP1;ratioP1;P2;durP2;ratioP2
44046;SDS011;29713;-33.888;151.150;2023-05-10T00:01:29;0.82;;;0.80;;
44046;SDS011;29713;-33.888;151.150;2023-05-10T00:03:57;2.28;;;1.05;;
44046;SDS011;29713;-33.888;151.150;2023-05-10T00:06:24;1.55;;;1.02;;
44046;SDS011;29713;-33.888;151.150;2023-05-10T00:08:52;3.85;;;1.25;;
44046;SDS011;29713;-33.888;151.150;2023-05-10T00:11:19;2.15;;;1.15;;
44046;SDS011;29713;-33.888;151.150;2023-05-10T00:13:47;1.02;;;0.90;;
44046;SDS011;29713;-33.888;151.150;2023-05-10T00:16:14;0.90;;;0.85;;
44046;SDS011;29713;-33.888;151.150;2023-05-10T00:18:41;1.67;;;0.82;;
44046;SDS011;29713;-33.888;151.150;2023-05-10T00:21:09;1.58;;;1.05;;
44046;SDS011;29713;-33.888;151.150;2023-05-10T00:23:36;2.08;;;0.88;;
44046;SDS011;29713;-33.888;151.150;2023-05-10T00:26:03;2.00;;;0.80;;
44046;SDS011;29713;-33.888;151.150;2023-05-10T00:28:31;1.30;;;1.00;;
44046;SDS011;29713;-33.888;151.150;2023-05-10T00:30:58;1.55;;;0.73;;
44046;SDS011;29713;-33.888;151.150;2023-05-10T00:33:25;1.27;;;0.80;;
44046;SDS011;29713;-33.888;151.150;2023-05-10T00:35:52;1.15;;;0.65;;
44046;SDS011;29713;-33.888;151.150;2023-05-10T00:38:20;2.45;;;0.85;;
44046;SDS011;29713;-33.888;151.150;2023-05-10T00:40:47;1.15;;;0.68;;
44046;SDS011;29713;-33.888;151.150;2023-05-10T00:43:15;1.25;;;0.55;;
44046;SDS011;29713;-33.888;151.150;2023-05-10T00:45:42;2.15;;;0.60;;
44046;SDS011;29713;-33.888;151.150;2023-05-10T00:48:10;0.93;;;0.63;;
44046;SDS011;29713;-33.888;151.150;2023-05-10T00:50:38;1.02;;;0.50;;
44046;SDS011;29713;-33.888;151.150;2023-05-10T00:53:05;1.48;;;0.50;;
44046;SDS011;29713;-33.888;151.150;2023-05-10T00:55:33;1.08;;;0.65;;
44046;SDS011;29713;-33.888;151.150;2023-05-10T00:58:00;0.70;;;0.52;;
44046;SDS011;29713;-33.888;151.150;2023-05-10T01:00:28;0.80;;;0.47;;
44046;SDS011;29713;-33.888;151.150;2023-05-10T01:02:56;1.25;;;0.75;;
44046;SDS011;29713;-33.888;151.150;2023-05-10T01:05:24;2.22;;;0.63;;
44046;SDS011;29713;-33.888;151.150;2023-05-10T01:07:52;1.23;;;0.65;;
44046;SDS011;29713;-33.888;151.150;2023-05-10T01:10:20;2.03;;;0.50;;
44046;SDS011;29713;-33.888;151.150;2023-05-10T01:12:47;1.10;;;0.60;;
44046;SDS011;29713;-33.888;151.150;2023-05-10T01:15:15;1.13;;;0.65;;
44046;SDS011;29713;-33.888;151.150;2023-05-10T01:17:44;2.20;;;0.98;;
44046;SDS011;29713;-33.888;151.150;2023-05-10T01:20:13;2.95;;;0.90;;
44046;SDS011;29713;-33.888;151.150;2023-05-10T01:33:55;1.70;;;0.70;;
44046;SDS011;29713;-33.888;151.150;2023-05-10T01:36:34;1.25;;;0.65;;
44046;SDS011;29713;-33.888;151.150;2023-05-10T01:39:32;0.75;;;0.65;;
44046;SDS011;29713;-33.888;151.150;2023-05-10T01:42:25;2.55;;;0.55;;
44046;SDS011;29713;-33.888;151.150;2023-05-10T01:45:07;0.90;;;0.52;;
44046;SDS011;29713;-33.888;151.150;2023-05-10T01:48:10;0.88;;;0.50;;
44046;SDS011;29713;-33.888;151.150;2023-05-10T01:50:41;3.75;;;0.60;;
44046;SDS011;29713;-33.888;151.150;2023-05-10T01:53:11;1.42;;;0.63;;
44046;SDS011;29713;-33.888;151.150;2023-05-10T01:55:43;0.90;;;0.60;;
44046;SDS011;29713;-33.888;151.150;2023-05-10T01:58:19;3.42;;;0.70;;
44046;SDS011;29713;-33.888;151.150;2023-05-10T02:00:53;2.33;;;0.70;;
44046;SDS011;29713;-33.888;151.150;2023-05-10T02:03:22;1.08;;;0.80;;
44046;SDS011;29713;-33.888;151.150;2023-05-10T02:05:51;2.45;;;0.88;;
44046;SDS011;29713;-33.888;151.150;2023-05-10T02:08:20;3.38;;;0.75;;
44046;SDS011;29713;-33.888;151.150;2023-05-10T02:10:50;1.83;;;0.77;;
44046;SDS011;29713;-33.888;151.150;2023-05-10T02:13:21;1.00;;;0.60;;
44046;SDS011;29713;-33.888;151.150;2023-05-10T02:15:51;1.83;;;0.70;;
44046;SDS011;29713;-33.888;151.150;2023-05-10T02:18:20;0.63;;;0.60;;
44046;SDS011;29713;-33.888;151.150;2023-05-10T02:20:49;3.05;;;0.90;;
44046;SDS011;29713;-33.888;151.150;2023-05-10T02:23:19;1.02;;;0.60;;
44046;SDS011;29713;-33.888;151.150;2023-05-10T02:25:48;2.05;;;0.80;;
44046;SDS011;29713;-33.888;151.150;2023-05-10T02:28:17;2.92;;;0.95;;
44046;SDS011;29713;-33.888;151.150;2023-05-10T02:30:45;3.53;;;0.75;;
44046;SDS011;29713;-33.888;151.150;2023-05-10T02:33:14;2.00;;;0.65;;
44046;SDS011;29713;-33.888;151.150;2023-05-10T02:35:42;1.40;;;0.80;;
44046;SDS011;29713;-33.888;151.150;2023-05-10T02:38:10;2.95;;;0.63;;
44046;SDS011;29713;-33.888;151.150;2023-05-10T02:40:39;3.00;;;0.80;;
44046;SDS011;29713;-33.888;151.150;2023-05-10T02:43:12;3.65;;;0.77;;
44046;SDS011;29713;-33.888;151.150;2023-05-10T02:45:41;2.60;;;0.70;;
44046;SDS011;29713;-33.888;151.150;2023-05-10T02:48:12;1.95;;;0.52;;
44046;SDS011;29713;-33.888;151.150;2023-05-10T02:50:39;2.58;;;0.68;;
44046;SDS011;29713;-33.888;151.150;2023-05-10T02:53:10;1.67;;;0.80;;
44046;SDS011;29713;-33.888;151.150;2023-05-10T02:55:44;5.82;;;1.00;;
44046;SDS011;29713;-33.888;151.150;2023-05-10T02:58:14;5.50;;;1.05;;
44046;SDS011;29713;-33.888;151.150;2023-05-10T03:00:45;1.98;;;0.55;;
44046;SDS011;29713;-33.888;151.150;2023-05-10T03:03:13;3.90;;;0.93;;
44046;SDS011;29713;-33.888;151.150;2023-05-10T03:05:41;2.85;;;0.80;;
44046;SDS011;29713;-33.888;151.150;2023-05-10T03:08:08;1.73;;;0.70;;
44046;SDS011;29713;-33.888;151.150;2023-05-10T03:10:38;4.30;;;0.85;;
44046;SDS011;29713;-33.888;151.150;2023-05-10T03:13:32;3.15;;;0.90;;
44046;SDS011;29713;-33.888;151.150;2023-05-10T03:16:07;4.20;;;0.85;;
44046;SDS011;29713;-33.888;151.150;2023-05-10T03:21:22;1.90;;;0.98;;
44046;SDS011;29713;-33.888;151.150;2023-05-10T03:24:04;2.70;;;0.90;;
44046;SDS011;29713;-33.888;151.150;2023-05-10T03:26:33;1.63;;;0.70;;
44046;SDS011;29713;-33.888;151.150;2023-05-10T03:29:02;2.33;;;0.85;;
44046;SDS011;29713;-33.888;151.150;2023-05-10T03:31:33;1.42;;;0.73;;
44046;SDS011;29713;-33.888;151.150;2023-05-10T03:34:00;1.58;;;0.70;;
44046;SDS011;29713;-33.888;151.150;2023-05-10T03:36:28;3.55;;;0.90;;
44046;SDS011;29713;-33.888;151.150;2023-05-10T03:38:55;3.50;;;1.30;;
44046;SDS011;29713;-33.888;151.150;2023-05-10T03:41:22;2.20;;;0.93;;
44046;SDS011;29713;-33.888;151.150;2023-05-10T03:43:51;4.93;;;0.95;;
44046;SDS011;29713;-33.888;151.150;2023-05-10T03:46:18;3.28;;;0.90;;
44046;SDS011;29713;-33.888;151.150;2023-05-10T03:48:45;3.10;;;0.90;;
44046;SDS011;29713;-33.888;151.150;2023-05-10T03:51:13;3.45;;;1.17;;
44046;SDS011;29713;-33.888;151.150;2023-05-10T03:53:40;3.70;;;0.95;;
44046;SDS011;29713;-33.888;151.150;2023-05-10T03:56:07;3.20;;;1.00;;
44046;SDS011;29713;-33.888;151.150;2023-05-10T03:58:34;4.53;;;0.98;;
44046;SDS011;29713;-33.888;151.150;2023-05-10T04:01:02;1.58;;;0.70;;
44046;SDS011;29713;-33.888;151.150;2023-05-10T04:03:29;2.53;;;1.30;;
44046;SDS011;29713;-33.888;151.150;2023-05-10T04:06:00;2.63;;;0.70;;
44046;SDS011;29713;-33.888;151.150;2023-05-10T04:08:28;3.92;;;0.70;;
44046;SDS011;29713;-33.888;151.150;2023-05-10T04:11:05;4.18;;;1.20;;
44046;SDS011;29713;-33.888;151.150;2023-05-10T04:13:33;2.25;;;0.93;;
44046;SDS011;29713;-33.888;151.150;2023-05-10T04:16:01;2.45;;;1.00;;
44046;SDS011;29713;-33.888;151.150;2023-05-10T04:18:32;4.20;;;1.10;;
44046;SDS011;29713;-33.888;151.150;2023-05-10T04:20:59;7.20;;;1.20;;
44046;SDS011;29713;-33.888;151.150;2023-05-10T04:23:27;2.65;;;1.17;;
44046;SDS011;29713;-33.888;151.150;2023-05-10T04:26:00;3.80;;;1.20;;
44046;SDS011;29713;-33.888;151.150;2023-05-10T04:28:28;4.70;;;1.38;;
44046;SDS011;29713;-33.888;151.150;2023-05-10T04:31:02;3.00;;;1.40;;
44046;SDS011;29713;-33.888;151.150;2023-05-10T04:33:33;6.68;;;1.40;;
44046;SDS011;29713;-33.888;151.150;2023-05-10T04:36:01;3.85;;;0.80;;
44046;SDS011;29713;-33.888;151.150;2023-05-10T04:38:29;3.38;;;1.02;;
44046;SDS011;29713;-33.888;151.150;2023-05-10T04:41:06;4.38;;;0.98;;
44046;SDS011;29713;-33.888;151.150;2023-05-10T04:43:35;2.80;;;1.10;;
44046;SDS011;29713;-33.888;151.150;2023-05-10T04:46:03;3.42;;;0.88;;
44046;SDS011;29713;-33.888;151.150;2023-05-10T04:48:31;3.78;;;1.23;;
44046;SDS011;29713;-33.888;151.150;2023-05-10T04:50:59;3.08;;;1.00;;
44046;SDS011;29713;-33.888;151.150;2023-05-10T04:53:26;4.95;;;1.20;;
44046;SDS011;29713;-33.888;151.150;2023-05-10T04:55:53;4.38;;;1.27;;
44046;SDS011;29713;-33.888;151.150;2023-05-10T04:58:21;2.03;;;0.95;;
44046;SDS011;29713;-33.888;151.150;2023-05-10T05:00:48;3.60;;;0.90;;
44046;SDS011;29713;-33.888;151.150;2023-05-10T05:03:16;3.45;;;1.02;;
44046;SDS011;29713;-33.888;151.150;2023-05-10T05:05:43;2.22;;;1.10;;
44046;SDS011;29713;-33.888;151.150;2023-05-10T05:08:13;5.90;;;1.13;;
44046;SDS011;29713;-33.888;151.150;2023-05-10T05:10:41;5.13;;;1.35;;
44046;SDS011;29713;-33.888;151.150;2023-05-10T05:13:08;4.20;;;1.10;;
44046;SDS011;29713;-33.888;151.150;2023-05-10T05:15:35;3.72;;;1.10;;
44046;SDS011;29713;-33.888;151.150;2023-05-10T05:18:03;4.22;;;1.10;;
44046;SDS011;29713;-33.888;151.150;2023-05-10T05:20:31;3.90;;;1.00;;
44046;SDS011;29713;-33.888;151.150;2023-05-10T05:23:00;5.55;;;0.93;;
44046;SDS011;29713;-33.888;151.150;2023-05-10T05:25:28;4.15;;;1.00;;
44046;SDS011;29713;-33.888;151.150;2023-05-10T05:27:55;2.03;;;0.90;;
44046;SDS011;29713;-33.888;151.150;2023-05-10T05:30:22;5.10;;;1.58;;
44046;SDS011;29713;-33.888;151.150;2023-05-10T05:32:50;4.53;;;1.17;;
44046;SDS011;29713;-33.888;151.150;2023-05-10T05:35:17;7.95;;;1.23;;
44046;SDS011;29713;-33.888;151.150;2023-05-10T05:37:45;3.35;;;0.90;;
44046;SDS011;29713;-33.888;151.150;2023-05-10T05:40:12;2.15;;;0.90;;
44046;SDS011;29713;-33.888;151.150;2023-05-10T05:42:40;4.57;;;1.00;;
44046;SDS011;29713;-33.888;151.150;2023-05-10T05:45:07;2.88;;;1.00;;
44046;SDS011;29713;-33.888;151.150;2023-05-10T05:47:38;2.10;;;0.88;;
44046;SDS011;29713;-33.888;151.150;2023-05-10T05:50:06;2.83;;;0.90;;
44046;SDS011;29713;-33.888;151.150;2023-05-10T05:52:33;2.45;;;0.90;;
44046;SDS011;29713;-33.888;151.150;2023-05-10T05:55:01;1.45;;;0.90;;
44046;SDS011;29713;-33.888;151.150;2023-05-10T05:57:29;4.05;;;1.10;;
44046;SDS011;29713;-33.888;151.150;2023-05-10T05:59:57;4.00;;;1.15;;
44046;SDS011;29713;-33.888;151.150;2023-05-10T06:02:25;3.83;;;1.00;;
44046;SDS011;29713;-33.888;151.150;2023-05-10T06:04:52;3.67;;;0.93;;
44046;SDS011;29713;-33.888;151.150;2023-05-10T06:07:19;3.20;;;0.90;;
44046;SDS011;29713;-33.888;151.150;2023-05-10T06:09:47;3.13;;;1.33;;
44046;SDS011;29713;-33.888;151.150;2023-05-10T06:12:14;3.22;;;1.10;;
44046;SDS011;29713;-33.888;151.150;2023-05-10T06:14:41;2.90;;;1.00;;
44046;SDS011;29713;-33.888;151.150;2023-05-10T06:17:09;3.85;;;1.00;;
44046;SDS011;29713;-33.888;151.150;2023-05-10T06:19:36;2.83;;;0.95;;
44046;SDS011;29713;-33.888;151.150;2023-05-10T06:22:03;4.88;;;1.35;;
44046;SDS011;29713;-33.888;151.150;2023-05-10T06:24:31;2.83;;;1.15;;
44046;SDS011;29713;-33.888;151.150;2023-05-10T06:26:58;3.85;;;0.90;;
44046;SDS011;29713;-33.888;151.150;2023-05-10T06:29:26;2.80;;;1.15;;
44046;SDS011;29713;-33.888;151.150;2023-05-10T06:31:53;2.90;;;1.00;;
44046;SDS011;29713;-33.888;151.150;2023-05-10T06:34:20;3.92;;;1.10;;
44046;SDS011;29713;-33.888;151.150;2023-05-10T06:36:47;4.13;;;1.30;;
44046;SDS011;29713;-33.888;151.150;2023-05-10T06:39:15;4.43;;;1.20;;
44046;SDS011;29713;-33.888;151.150;2023-05-10T06:41:42;4.38;;;1.60;;
44046;SDS011;29713;-33.888;151.150;2023-05-10T06:44:09;2.80;;;1.20;;
44046;SDS011;29713;-33.888;151.150;2023-05-10T06:46:37;2.63;;;1.10;;
44046;SDS011;29713;-33.888;151.150;2023-05-10T06:49:04;4.00;;;1.60;;
44046;SDS011;29713;-33.888;151.150;2023-05-10T06:51:32;5.53;;;1.50;;
44046;SDS011;29713;-33.888;151.150;2023-05-10T06:53:59;2.10;;;1.00;;
44046;SDS011;29713;-33.888;151.150;2023-05-10T06:56:27;3.03;;;1.23;;
44046;SDS011;29713;-33.888;151.150;2023-05-10T06:58:54;5.03;;;1.10;;
44046;SDS011;29713;-33.888;151.150;2023-05-10T07:01:22;2.47;;;1.05;;
44046;SDS011;29713;-33.888;151.150;2023-05-10T07:03:49;3.55;;;1.17;;
44046;SDS011;29713;-33.888;151.150;2023-05-10T07:06:16;5.68;;;1.40;;
44046;SDS011;29713;-33.888;151.150;2023-05-10T07:08:43;2.85;;;1.08;;
44046;SDS011;29713;-33.888;151.150;2023-05-10T07:11:11;4.85;;;1.35;;
44046;SDS011;29713;-33.888;151.150;2023-05-10T07:13:38;2.63;;;1.17;;
44046;SDS011;29713;-33.888;151.150;2023-05-10T07:16:09;3.90;;;1.13;;
44046;SDS011;29713;-33.888;151.150;2023-05-10T07:18:37;6.22;;;1.75;;
44046;SDS011;29713;-33.888;151.150;2023-05-10T07:21:07;2.78;;;1.10;;
44046;SDS011;29713;-33.888;151.150;2023-05-10T07:23:34;6.25;;;1.42;;
44046;SDS011;29713;-33.888;151.150;2023-05-10T07:26:02;4.50;;;1.30;;
44046;SDS011;29713;-33.888;151.150;2023-05-10T07:28:29;4.75;;;1.42;;
44046;SDS011;29713;-33.888;151.150;2023-05-10T07:30:56;4.47;;;1.42;;
44046;SDS011;29713;-33.888;151.150;2023-05-10T07:33:24;10.82;;;4.13;;
44046;SDS011;29713;-33.888;151.150;2023-05-10T07:35:51;5.57;;;1.80;;
44046;SDS011;29713;-33.888;151.150;2023-05-10T07:38:18;8.93;;;1.80;;
44046;SDS011;29713;-33.888;151.150;2023-05-10T07:40:46;5.20;;;1.50;;
44046;SDS011;29713;-33.888;151.150;2023-05-10T07:43:13;5.00;;;1.45;;
44046;SDS011;29713;-33.888;151.150;2023-05-10T07:45:41;8.00;;;1.60;;
44046;SDS011;29713;-33.888;151.150;2023-05-10T07:48:08;4.43;;;1.17;;
44046;SDS011;29713;-33.888;151.150;2023-05-10T07:50:36;10.68;;;2.00;;
44046;SDS011;29713;-33.888;151.150;2023-05-10T07:53:03;6.15;;;1.92;;
44046;SDS011;29713;-33.888;151.150;2023-05-10T07:55:30;6.15;;;1.58;;
44046;SDS011;29713;-33.888;151.150;2023-05-10T07:57:58;7.70;;;2.03;;
44046;SDS011;29713;-33.888;151.150;2023-05-10T08:00:26;5.82;;;1.75;;
44046;SDS011;29713;-33.888;151.150;2023-05-10T08:02:54;8.27;;;1.92;;
44046;SDS011;29713;-33.888;151.150;2023-05-10T08:05:21;7.43;;;1.65;;
44046;SDS011;29713;-33.888;151.150;2023-05-10T08:07:48;4.75;;;1.70;;
44046;SDS011;29713;-33.888;151.150;2023-05-10T08:10:16;6.13;;;2.20;;
44046;SDS011;29713;-33.888;151.150;2023-05-10T08:12:43;5.88;;;1.70;;
44046;SDS011;29713;-33.888;151.150;2023-05-10T08:15:10;5.35;;;1.70;;
44046;SDS011;29713;-33.888;151.150;2023-05-10T08:17:38;7.38;;;2.17;;
44046;SDS011;29713;-33.888;151.150;2023-05-10T08:20:05;5.53;;;1.75;;
44046;SDS011;29713;-33.888;151.150;2023-05-10T08:22:33;3.80;;;1.63;;
44046;SDS011;29713;-33.888;151.150;2023-05-10T08:25:00;5.45;;;1.65;;
44046;SDS011;29713;-33.888;151.150;2023-05-10T08:27:28;7.05;;;2.08;;
44046;SDS011;29713;-33.888;151.150;2023-05-10T08:29:55;6.97;;;2.78;;
44046;SDS011;29713;-33.888;151.150;2023-05-10T08:32:22;5.75;;;3.30;;
44046;SDS011;29713;-33.888;151.150;2023-05-10T08:34:50;10.18;;;5.15;;
44046;SDS011;29713;-33.888;151.150;2023-05-10T08:37:17;10.55;;;3.35;;
44046;SDS011;29713;-33.888;151.150;2023-05-10T08:39:45;6.85;;;3.10;;
44046;SDS011;29713;-33.888;151.150;2023-05-10T08:42:13;7.65;;;2.85;;
44046;SDS011;29713;-33.888;151.150;2023-05-10T08:44:48;6.57;;;2.35;;
44046;SDS011;29713;-33.888;151.150;2023-05-10T08:47:16;3.78;;;1.95;;
44046;SDS011;29713;-33.888;151.150;2023-05-10T08:49:45;4.13;;;1.70;;
44046;SDS011;29713;-33.888;151.150;2023-05-10T08:52:16;7.32;;;1.80;;
44046;SDS011;29713;-33.888;151.150;2023-05-10T08:54:44;5.28;;;2.03;;
44046;SDS011;29713;-33.888;151.150;2023-05-10T08:57:14;7.75;;;2.20;;
44046;SDS011;29713;-33.888;151.150;2023-05-10T08:59:41;9.82;;;2.35;;
44046;SDS011;29713;-33.888;151.150;2023-05-10T09:02:09;11.95;;;2.72;;
44046;SDS011;29713;-33.888;151.150;2023-05-10T09:04:38;8.35;;;2.78;;
44046;SDS011;29713;-33.888;151.150;2023-05-10T09:07:06;5.60;;;2.40;;
44046;SDS011;29713;-33.888;151.150;2023-05-10T09:09:34;5.88;;;2.60;;
44046;SDS011;29713;-33.888;151.150;2023-05-10T09:12:02;8.07;;;2.33;;
44046;SDS011;29713;-33.888;151.150;2023-05-10T09:14:30;4.20;;;2.35;;
44046;SDS011;29713;-33.888;151.150;2023-05-10T09:17:00;6.93;;;2.08;;
44046;SDS011;29713;-33.888;151.150;2023-05-10T09:19:28;6.63;;;2.50;;
44046;SDS011;29713;-33.888;151.150;2023-05-10T09:21:55;8.38;;;2.65;;
44046;SDS011;29713;-33.888;151.150;2023-05-10T09:24:25;5.97;;;2.45;;
44046;SDS011;29713;-33.888;151.150;2023-05-10T09:26:53;6.80;;;2.40;;
44046;SDS011;29713;-33.888;151.150;2023-05-10T09:29:22;6.75;;;2.58;;
44046;SDS011;29713;-33.888;151.150;2023-05-10T09:31:50;7.25;;;2.97;;
44046;SDS011;29713;-33.888;151.150;2023-05-10T09:34:20;9.23;;;2.70;;
44046;SDS011;29713;-33.888;151.150;2023-05-10T09:36:56;7.22;;;2.95;;
44046;SDS011;29713;-33.888;151.150;2023-05-10T09:39:35;11.45;;;2.90;;
44046;SDS011;29713;-33.888;151.150;2023-05-10T09:42:09;7.95;;;2.63;;
44046;SDS011;29713;-33.888;151.150;2023-05-10T09:44:37;7.75;;;2.83;;
44046;SDS011;29713;-33.888;151.150;2023-05-10T09:47:06;6.40;;;2.60;;
44046;SDS011;29713;-33.888;151.150;2023-05-10T09:49:33;6.15;;;3.20;;
44046;SDS011;29713;-33.888;151.150;2023-05-10T09:52:02;12.55;;;4.22;;
44046;SDS011;29713;-33.888;151.150;2023-05-10T09:54:31;12.67;;;4.13;;
44046;SDS011;29713;-33.888;151.150;2023-05-10T09:57:00;21.63;;;8.48;;
44046;SDS011;29713;-33.888;151.150;2023-05-10T09:59:28;16.52;;;7.05;;
44046;SDS011;29713;-33.888;151.150;2023-05-10T10:02:00;8.77;;;3.80;;
44046;SDS011;29713;-33.888;151.150;2023-05-10T10:04:30;8.45;;;3.08;;
44046;SDS011;29713;-33.888;151.150;2023-05-10T10:07:01;5.78;;;2.72;;
44046;SDS011;29713;-33.888;151.150;2023-05-10T10:09:29;5.87;;;3.07;;
44046;SDS011;29713;-33.888;151.150;2023-05-10T10:11:58;9.95;;;3.90;;
44046;SDS011;29713;-33.888;151.150;2023-05-10T10:14:30;9.98;;;4.50;;
44046;SDS011;29713;-33.888;151.150;2023-05-10T10:16:57;7.65;;;3.30;;
44046;SDS011;29713;-33.888;151.150;2023-05-10T10:19:27;9.63;;;3.63;;
44046;SDS011;29713;-33.888;151.150;2023-05-10T10:21:56;12.40;;;3.80;;
44046;SDS011;29713;-33.888;151.150;2023-05-10T10:24:24;10.77;;;4.60;;
44046;SDS011;29713;-33.888;151.150;2023-05-10T10:26:54;8.97;;;3.70;;
44046;SDS011;29713;-33.888;151.150;2023-05-10T10:29:32;12.77;;;4.13;;
44046;SDS011;29713;-33.888;151.150;2023-05-10T10:32:35;10.03;;;4.07;;
44046;SDS011;29713;-33.888;151.150;2023-05-10T10:35:22;9.93;;;4.20;;
44046;SDS011;29713;-33.888;151.150;2023-05-10T10:37:50;11.13;;;4.07;;
44046;SDS011;29713;-33.888;151.150;2023-05-10T10:40:27;10.53;;;4.80;;
44046;SDS011;29713;-33.888;151.150;2023-05-10T10:42:56;12.93;;;4.43;;
44046;SDS011;29713;-33.888;151.150;2023-05-10T10:45:24;12.53;;;5.00;;
44046;SDS011;29713;-33.888;151.150;2023-05-10T10:48:37;13.10;;;5.77;;
44046;SDS011;29713;-33.888;151.150;2023-05-10T10:50:46;11.80;;;6.20;;
44046;SDS011;29713;-33.888;151.150;2023-05-10T10:53:13;10.43;;;5.77;;
44046;SDS011;29713;-33.888;151.150;2023-05-10T10:55:47;15.27;;;6.77;;
44046;SDS011;29713;-33.888;151.150;2023-05-10T10:58:30;15.13;;;7.40;;
44046;SDS011;29713;-33.888;151.150;2023-05-10T11:06:35;21.13;;;9.70;;
44046;SDS011;29713;-33.888;151.150;2023-05-10T11:09:10;17.53;;;9.77;;
44046;SDS011;29713;-33.888;151.150;2023-05-10T11:11:51;20.20;;;10.33;;
44046;SDS011;29713;-33.888;151.150;2023-05-10T11:14:23;18.90;;;8.63;;
44046;SDS011;29713;-33.888;151.150;2023-05-10T11:16:51;18.60;;;8.70;;
44046;SDS011;29713;-33.888;151.150;2023-05-10T11:19:18;20.33;;;9.10;;
44046;SDS011;29713;-33.888;151.150;2023-05-10T11:24:15;16.93;;;8.90;;
44046;SDS011;29713;-33.888;151.150;2023-05-10T11:26:44;16.33;;;8.30;;
44046;SDS011;29713;-33.888;151.150;2023-05-10T11:29:12;16.43;;;7.83;;
44046;SDS011;29713;-33.888;151.150;2023-05-10T11:31:43;14.93;;;7.90;;
44046;SDS011;29713;-33.888;151.150;2023-05-10T11:34:13;16.10;;;8.00;;
44046;SDS011;29713;-33.888;151.150;2023-05-10T11:36:54;12.03;;;7.23;;
44046;SDS011;29713;-33.888;151.150;2023-05-10T11:39:25;13.00;;;7.33;;
44046;SDS011;29713;-33.888;151.150;2023-05-10T11:41:54;17.63;;;7.93;;
44046;SDS011;29713;-33.888;151.150;2023-05-10T11:44:21;15.97;;;7.80;;
44046;SDS011;29713;-33.888;151.150;2023-05-10T11:46:49;13.90;;;7.80;;
44046;SDS011;29713;-33.888;151.150;2023-05-10T11:49:16;16.47;;;7.20;;
44046;SDS011;29713;-33.888;151.150;2023-05-10T11:51:44;16.20;;;7.60;;
44046;SDS011;29713;-33.888;151.150;2023-05-10T11:54:11;14.57;;;7.57;;
44046;SDS011;29713;-33.888;151.150;2023-05-10T11:56:39;15.17;;;7.30;;
44046;SDS011;29713;-33.888;151.150;2023-05-10T11:59:06;11.07;;;6.10;;
44046;SDS011;29713;-33.888;151.150;2023-05-10T12:01:34;16.27;;;6.43;;
44046;SDS011;29713;-33.888;151.150;2023-05-10T12:04:02;10.10;;;5.40;;
44046;SDS011;29713;-33.888;151.150;2023-05-10T12:06:30;11.83;;;5.43;;
44046;SDS011;29713;-33.888;151.150;2023-05-10T12:09:05;12.87;;;5.13;;
44046;SDS011;29713;-33.888;151.150;2023-05-10T12:11:38;12.53;;;4.93;;
44046;SDS011;29713;-33.888;151.150;2023-05-10T12:14:07;9.07;;;4.20;;
44046;SDS011;29713;-33.888;151.150;2023-05-10T12:16:36;11.63;;;4.70;;
44046;SDS011;29713;-33.888;151.150;2023-05-10T12:19:03;6.37;;;3.40;;
44046;SDS011;29713;-33.888;151.150;2023-05-10T12:21:30;10.07;;;4.80;;
44046;SDS011;29713;-33.888;151.150;2023-05-10T12:23:59;9.07;;;4.17;;
44046;SDS011;29713;-33.888;151.150;2023-05-10T12:26:33;9.17;;;4.10;;
44046;SDS011;29713;-33.888;151.150;2023-05-10T12:29:14;10.00;;;4.03;;
44046;SDS011;29713;-33.888;151.150;2023-05-10T12:31:53;9.40;;;3.83;;
44046;SDS011;29713;-33.888;151.150;2023-05-10T12:34:30;11.57;;;4.20;;
44046;SDS011;29713;-33.888;151.150;2023-05-10T12:36:59;12.40;;;4.00;;
44046;SDS011;29713;-33.888;151.150;2023-05-10T12:39:37;8.63;;;3.47;;
44046;SDS011;29713;-33.888;151.150;2023-05-10T12:42:11;10.93;;;4.10;;
44046;SDS011;29713;-33.888;151.150;2023-05-10T12:44:39;10.83;;;4.17;;
44046;SDS011;29713;-33.888;151.150;2023-05-10T12:47:06;10.10;;;4.77;;
44046;SDS011;29713;-33.888;151.150;2023-05-10T12:49:34;11.90;;;4.20;;
44046;SDS011;29713;-33.888;151.150;2023-05-10T12:52:01;13.37;;;4.53;;
44046;SDS011;29713;-33.888;151.150;2023-05-10T12:54:28;11.90;;;4.47;;
44046;SDS011;29713;-33.888;151.150;2023-05-10T12:56:56;11.17;;;4.70;;
44046;SDS011;29713;-33.888;151.150;2023-05-10T12:59:23;13.50;;;4.60;;
44046;SDS011;29713;-33.888;151.150;2023-05-10T13:01:50;12.60;;;5.23;;
44046;SDS011;29713;-33.888;151.150;2023-05-10T13:04:18;9.57;;;4.20;;
44046;SDS011;29713;-33.888;151.150;2023-05-10T13:06:45;11.27;;;5.03;;
44046;SDS011;29713;-33.888;151.150;2023-05-10T13:09:12;10.07;;;4.57;;
44046;SDS011;29713;-33.888;151.150;2023-05-10T13:11:40;10.57;;;5.27;;
44046;SDS011;29713;-33.888;151.150;2023-05-10T13:14:08;11.70;;;4.80;;
44046;SDS011;29713;-33.888;151.150;2023-05-10T13:16:35;7.47;;;4.10;;
44046;SDS011;29713;-33.888;151.150;2023-05-10T13:19:02;9.40;;;4.10;;
44046;SDS011;29713;-33.888;151.150;2023-05-10T13:21:30;9.60;;;4.13;;
44046;SDS011;29713;-33.888;151.150;2023-05-10T13:23:57;11.47;;;4.90;;
44046;SDS011;29713;-33.888;151.150;2023-05-10T13:26:25;9.83;;;4.50;;
44046;SDS011;29713;-33.888;151.150;2023-05-10T13:28:53;11.20;;;4.17;;
44046;SDS011;29713;-33.888;151.150;2023-05-10T13:31:21;7.43;;;3.83;;
44046;SDS011;29713;-33.888;151.150;2023-05-10T13:33:48;11.13;;;4.27;;
44046;SDS011;29713;-33.888;151.150;2023-05-10T13:36:15;7.97;;;4.17;;
44046;SDS011;29713;-33.888;151.150;2023-05-10T13:38:43;12.33;;;4.20;;
44046;SDS011;29713;-33.888;151.150;2023-05-10T13:41:10;12.00;;;4.37;;
44046;SDS011;29713;-33.888;151.150;2023-05-10T13:43:37;11.57;;;4.33;;
44046;SDS011;29713;-33.888;151.150;2023-05-10T13:46:05;7.83;;;3.90;;
44046;SDS011;29713;-33.888;151.150;2023-05-10T13:48:32;14.70;;;5.07;;
44046;SDS011;29713;-33.888;151.150;2023-05-10T13:50:59;13.70;;;4.87;;
44046;SDS011;29713;-33.888;151.150;2023-05-10T13:53:27;8.67;;;4.37;;
44046;SDS011;29713;-33.888;151.150;2023-05-10T13:55:54;8.43;;;4.70;;
44046;SDS011;29713;-33.888;151.150;2023-05-10T13:58:21;10.57;;;4.53;;
44046;SDS011;29713;-33.888;151.150;2023-05-10T14:00:49;8.43;;;4.00;;
44046;SDS011;29713;-33.888;151.150;2023-05-10T14:03:16;9.80;;;4.30;;
44046;SDS011;29713;-33.888;151.150;2023-05-10T14:05:43;15.67;;;5.03;;
44046;SDS011;29713;-33.888;151.150;2023-05-10T14:08:11;7.80;;;4.37;;
44046;SDS011;29713;-33.888;151.150;2023-05-10T14:10:39;9.23;;;4.43;;
44046;SDS011;29713;-33.888;151.150;2023-05-10T14:13:06;12.30;;;5.47;;
44046;SDS011;29713;-33.888;151.150;2023-05-10T14:15:33;9.37;;;4.97;;
44046;SDS011;29713;-33.888;151.150;2023-05-10T14:18:01;9.57;;;4.80;;
44046;SDS011;29713;-33.888;151.150;2023-05-10T14:20:28;10.10;;;4.53;;
44046;SDS011;29713;-33.888;151.150;2023-05-10T14:22:57;11.93;;;4.67;;
44046;SDS011;29713;-33.888;151.150;2023-05-10T14:25:24;10.87;;;4.37;;
44046;SDS011;29713;-33.888;151.150;2023-05-10T14:27:52;9.60;;;4.37;;
44046;SDS011;29713;-33.888;151.150;2023-05-10T14:30:20;9.63;;;4.63;;
44046;SDS011;29713;-33.888;151.150;2023-05-10T14:32:47;10.93;;;4.57;;
44046;SDS011;29713;-33.888;151.150;2023-05-10T14:35:15;9.10;;;4.57;;
44046;SDS011;29713;-33.888;151.150;2023-05-10T14:37:42;10.03;;;4.87;;
44046;SDS011;29713;-33.888;151.150;2023-05-10T14:40:09;10.27;;;4.73;;